createdAt,value
2019-05-16T00:01:48.807Z,9.90
2019-05-16T00:04:18.236Z,10.00
2019-05-16T00:06:48.082Z,10.00
2019-05-16T00:09:18.276Z,9.90
2019-05-16T00:11:48.824Z,9.90
2019-05-16T00:14:18.811Z,9.90
2019-05-16T00:16:48.463Z,9.90
2019-05-16T00:19:18.084Z,9.80
2019-05-16T00:21:48.825Z,9.90
2019-05-16T00:24:18.637Z,9.90
2019-05-16T00:26:48.098Z,9.80
2019-05-16T00:29:18.422Z,9.90
2019-05-16T00:31:48.650Z,9.80
2019-05-16T00:34:18.909Z,9.90
2019-05-16T00:36:48.802Z,9.70
2019-05-16T00:39:18.760Z,9.80
2019-05-16T00:41:48.198Z,9.70
2019-05-16T00:44:18.993Z,9.70
2019-05-16T00:46:48.693Z,9.70
2019-05-16T00:49:18.729Z,9.70
2019-05-16T00:51:48.133Z,9.80
2019-05-16T00:54:18.624Z,9.50
2019-05-16T00:56:48.693Z,9.70
2019-05-16T00:59:18.386Z,9.60
2019-05-16T01:01:50.077Z,9.50
2019-05-16T01:04:18.812Z,9.50
2019-05-16T01:06:48.505Z,9.40
2019-05-16T01:09:18.837Z,9.50
2019-05-16T01:11:48.672Z,9.60
2019-05-16T01:14:18.095Z,9.50
2019-05-16T01:16:48.812Z,9.40
2019-05-16T01:19:18.678Z,9.50
2019-05-16T01:21:48.367Z,9.50
2019-05-16T01:24:18.819Z,9.40
2019-05-16T01:26:48.466Z,9.40
2019-05-16T01:29:18.866Z,9.40
2019-05-16T01:31:48.553Z,9.40
2019-05-16T01:34:18.228Z,9.20
2019-05-16T01:36:48.668Z,9.20
2019-05-16T01:39:18.379Z,9.30
2019-05-16T01:41:48.127Z,9.20
2019-05-16T01:44:18.349Z,9.10
2019-05-16T01:46:48.064Z,9.20
2019-05-16T01:49:18.774Z,9.10
2019-05-16T01:51:48.492Z,9.20
2019-05-16T01:54:18.100Z,9.20
2019-05-16T01:56:48.095Z,9.20
2019-05-16T01:59:18.139Z,9.20
2019-05-16T02:01:48.425Z,9.20
2019-05-16T02:04:18.479Z,9.20
2019-05-16T02:06:54.177Z,9.20
2019-05-16T02:09:18.978Z,9.20
2019-05-16T02:11:48.378Z,9.20
2019-05-16T02:14:17.807Z,9.10
2019-05-16T02:16:47.699Z,9.20
2019-05-16T02:19:18.738Z,9.20
2019-05-16T02:21:50.398Z,9.20
2019-05-16T02:24:18.392Z,9.20
2019-05-16T02:26:49.320Z,9.20
2019-05-16T02:29:20.522Z,9.10
2019-05-16T02:31:51.316Z,9.10
2019-05-16T02:34:21.713Z,8.90
2019-05-16T02:37:10.685Z,8.90
2019-05-16T02:39:22.446Z,8.90
2019-05-16T02:41:52.100Z,8.80
2019-05-16T02:44:24.770Z,8.80
2019-05-16T02:46:52.570Z,8.60
2019-05-16T02:49:21.808Z,8.60
2019-05-16T02:51:51.260Z,8.50
2019-05-16T02:54:21.809Z,8.50
2019-05-16T02:56:51.364Z,8.50
2019-05-16T02:59:20.841Z,8.40
2019-05-16T03:01:52.190Z,8.30
2019-05-16T03:04:21.484Z,8.30
2019-05-16T03:06:51.704Z,8.30
2019-05-16T03:09:21.584Z,8.00
2019-05-16T03:11:51.329Z,8.00
2019-05-16T03:14:21.357Z,8.00
2019-05-16T03:16:52.482Z,7.80
2019-05-16T03:19:23.249Z,7.90
2019-05-16T03:21:53.450Z,7.80
2019-05-16T03:24:22.868Z,7.80
2019-05-16T03:26:51.993Z,7.80
2019-05-16T03:29:21.974Z,7.70
2019-05-16T03:31:54.335Z,7.80
2019-05-16T03:34:25.485Z,7.90
2019-05-16T03:36:54.711Z,7.80
2019-05-16T03:39:24.143Z,7.80
2019-05-16T03:41:53.507Z,7.70
2019-05-16T03:44:22.844Z,7.80
2019-05-16T03:46:52.185Z,7.80
2019-05-16T03:49:21.279Z,7.80
2019-05-16T03:51:50.696Z,7.80
2019-05-16T03:54:21.166Z,7.90
2019-05-16T03:56:51.412Z,7.70
2019-05-16T03:59:21.520Z,7.60
2019-05-16T04:01:51.309Z,7.70
2019-05-16T04:04:21.162Z,7.80
2019-05-16T04:06:50.945Z,7.70
2019-05-16T04:09:21.216Z,7.70
2019-05-16T04:11:51.010Z,7.50
2019-05-16T04:14:21.387Z,7.50
2019-05-16T04:16:51.126Z,7.60
2019-05-16T04:19:21.078Z,7.60
2019-05-16T04:21:51.230Z,7.60
2019-05-16T04:24:21.643Z,7.40
2019-05-16T04:26:51.803Z,7.40
2019-05-16T04:29:21.143Z,7.60
2019-05-16T04:31:51.082Z,7.40
2019-05-16T04:34:20.862Z,7.20
2019-05-16T04:36:51.518Z,7.30
2019-05-16T04:39:21.057Z,7.40
2019-05-16T04:41:51.025Z,7.60
2019-05-16T04:44:21.364Z,7.50
2019-05-16T04:46:51.260Z,7.50
2019-05-16T04:49:21.314Z,7.40
2019-05-16T04:51:51.670Z,7.30
2019-05-16T04:54:21.716Z,7.40
2019-05-16T04:56:51.583Z,7.50
2019-05-16T04:59:21.048Z,7.40
2019-05-16T05:01:51.241Z,7.40
2019-05-16T05:04:21.439Z,7.40
2019-05-16T05:06:51.239Z,7.40
2019-05-16T05:09:21.092Z,7.40
2019-05-16T05:11:51.919Z,7.30
2019-05-16T05:14:21.576Z,7.20
2019-05-16T05:16:50.859Z,7.30
2019-05-16T05:19:20.357Z,7.40
2019-05-16T05:21:51.480Z,7.70
2019-05-16T05:24:20.476Z,7.40
2019-05-16T05:26:50.330Z,7.60
2019-05-16T05:29:20.086Z,7.40
2019-05-16T05:31:55.180Z,7.50
2019-05-16T05:34:20.976Z,7.50
2019-05-16T05:36:51.162Z,7.50
2019-05-16T05:39:20.735Z,7.50
2019-05-16T05:41:50.631Z,7.50
2019-05-16T05:44:20.440Z,7.40
2019-05-16T05:46:51.132Z,7.30
2019-05-16T05:49:20.667Z,7.40
2019-05-16T05:51:50.097Z,7.40
2019-05-16T05:54:20.397Z,7.40
2019-05-16T05:56:50.141Z,7.50
2019-05-16T05:59:20.246Z,7.40
2019-05-16T06:01:51.726Z,7.50
2019-05-16T06:04:20.390Z,7.40
2019-05-16T06:06:50.383Z,7.50
2019-05-16T06:09:28.517Z,7.60
2019-05-16T06:11:50.863Z,7.60
2019-05-16T06:14:21.225Z,7.60
2019-05-16T06:16:51.031Z,7.60
2019-05-16T06:19:20.552Z,7.50
2019-05-16T06:21:50.289Z,7.60
2019-05-16T06:24:20.135Z,7.60
2019-05-16T06:26:50.461Z,7.70
2019-05-16T06:29:20.389Z,7.70
2019-05-16T06:31:49.893Z,7.80
2019-05-16T06:34:20.905Z,7.90
2019-05-16T06:36:51.071Z,8.00
2019-05-16T06:39:20.276Z,8.00
2019-05-16T06:41:50.933Z,7.90
2019-05-16T06:44:20.535Z,7.90
2019-05-16T06:46:59.577Z,8.00
2019-05-16T06:49:20.684Z,8.10
2019-05-16T06:51:51.518Z,8.20
2019-05-16T06:54:20.986Z,8.30
2019-05-16T06:56:51.065Z,8.10
2019-05-16T06:59:20.369Z,8.00
2019-05-16T07:01:50.039Z,8.00
2019-05-16T07:04:20.066Z,8.00
2019-05-16T07:06:58.763Z,8.00
2019-05-16T07:09:20.879Z,8.20
2019-05-16T07:11:50.514Z,8.10
2019-05-16T07:14:22.807Z,8.00
2019-05-16T07:16:50.893Z,8.10
2019-05-16T07:19:20.805Z,8.20
2019-05-16T07:21:50.877Z,8.20
2019-05-16T07:24:20.107Z,8.30
2019-05-16T07:26:50.109Z,8.20
2019-05-16T07:29:20.260Z,8.20
2019-05-16T07:31:52.252Z,8.20
2019-05-16T07:34:20.741Z,8.40
2019-05-16T07:36:50.328Z,8.30
2019-05-16T07:39:20.039Z,8.40
2019-05-16T07:41:50.904Z,8.50
2019-05-16T07:44:20.848Z,8.30
2019-05-16T07:46:51.480Z,8.50
2019-05-16T07:49:20.892Z,8.40
2019-05-16T07:51:50.235Z,8.50
2019-05-16T07:54:21.376Z,8.50
2019-05-16T07:56:58.531Z,8.60
2019-05-16T07:59:21.206Z,8.50
2019-05-16T08:01:53.896Z,8.50
2019-05-16T08:04:21.668Z,8.60
2019-05-16T08:06:50.986Z,8.70
2019-05-16T08:09:21.131Z,8.50
2019-05-16T08:11:50.603Z,8.70
2019-05-16T08:14:21.288Z,8.60
2019-05-16T08:16:50.859Z,8.60
2019-05-16T08:19:24.923Z,8.60
2019-05-16T08:21:51.251Z,8.70
2019-05-16T08:24:20.612Z,8.70
2019-05-16T08:26:51.266Z,8.70
2019-05-16T08:29:22.026Z,8.60
2019-05-16T08:31:52.759Z,8.70
2019-05-16T08:34:22.352Z,8.70
2019-05-16T08:36:52.066Z,8.80
2019-05-16T08:39:21.502Z,8.90
2019-05-16T08:44:22.167Z,8.80
2019-05-16T08:46:57.012Z,8.80
2019-05-16T08:49:22.609Z,8.90
2019-05-16T08:50:05.527Z,8.80
2019-05-16T08:51:53.062Z,8.80
2019-05-16T08:54:22.517Z,8.60
2019-05-16T08:56:51.595Z,8.60
2019-05-16T08:59:21.676Z,8.60
2019-05-16T09:04:24.592Z,8.70
2019-05-16T09:06:53.298Z,8.80
2019-05-16T09:09:39.833Z,9.00
2019-05-16T09:10:31.976Z,8.60
2019-05-16T09:11:53.543Z,8.90
2019-05-16T09:14:22.864Z,8.90
2019-05-16T09:16:52.198Z,9.00
2019-05-16T09:19:21.265Z,9.00
2019-05-16T09:21:50.344Z,9.10
2019-05-16T09:24:19.721Z,9.20
2019-05-16T09:26:49.042Z,9.30
2019-05-16T09:29:18.372Z,9.20
2019-05-16T09:32:06.577Z,9.30
2019-05-16T09:34:18.799Z,9.50
2019-05-16T09:36:48.362Z,9.60
2019-05-16T09:39:17.991Z,9.30
2019-05-16T09:41:54.479Z,9.50
2019-05-16T09:44:18.604Z,9.40
2019-05-16T09:46:48.163Z,9.50
2019-05-16T09:49:24.394Z,9.60
2019-05-16T09:51:48.447Z,9.50
2019-05-16T09:54:17.665Z,9.50
2019-05-16T09:56:47.354Z,9.50
2019-05-16T09:59:17.213Z,9.50
2019-05-16T10:01:47.946Z,9.50
2019-05-16T10:04:17.600Z,9.70
2019-05-16T10:06:46.882Z,9.80
2019-05-16T10:09:17.420Z,9.70
2019-05-16T10:11:50.814Z,9.70
2019-05-16T10:14:18.257Z,9.80
2019-05-16T10:16:47.992Z,9.80
2019-05-16T10:19:17.407Z,9.60
2019-05-16T10:21:46.770Z,9.60
2019-05-16T10:24:15.864Z,9.80
2019-05-16T10:26:47.237Z,9.80
2019-05-16T10:29:18.416Z,9.80
2019-05-16T10:31:52.660Z,9.80
2019-05-16T10:34:20.222Z,9.80
2019-05-16T10:36:50.039Z,9.80
2019-05-16T10:39:20.201Z,9.80
2019-05-16T10:41:49.963Z,9.80
2019-05-16T10:44:22.582Z,9.80
2019-05-16T10:46:51.972Z,9.80
2019-05-16T10:49:36.509Z,9.80
2019-05-16T10:51:52.258Z,9.90
2019-05-16T10:54:21.828Z,9.80
2019-05-16T10:56:51.074Z,9.60
2019-05-16T11:01:51.608Z,9.70
2019-05-16T11:04:29.162Z,9.70
2019-05-16T11:06:52.143Z,9.50
2019-05-16T11:09:21.671Z,9.60
2019-05-16T11:11:51.040Z,9.60
2019-05-16T11:14:20.447Z,9.50
2019-05-16T11:16:49.646Z,9.60
2019-05-16T11:19:24.209Z,9.50
2019-05-16T11:21:50.175Z,9.50
2019-05-16T11:24:19.532Z,9.50
2019-05-16T11:26:48.641Z,9.70
2019-05-16T11:29:18.104Z,9.70
2019-05-16T11:31:47.448Z,9.80
2019-05-16T11:34:17.460Z,9.70
2019-05-16T11:36:47.756Z,10.00
2019-05-16T11:39:17.467Z,10.00
2019-05-16T11:41:47.516Z,10.00
2019-05-16T11:44:17.745Z,10.00
2019-05-16T11:46:49.130Z,9.90
2019-05-16T11:49:17.630Z,9.90
2019-05-16T11:51:47.395Z,10.00
2019-05-16T11:54:17.590Z,9.80
2019-05-16T11:56:46.713Z,9.70
2019-05-16T11:59:15.838Z,9.60
2019-05-16T12:01:47.341Z,9.70
2019-05-16T12:04:19.891Z,9.80
2019-05-16T12:06:48.956Z,9.90
2019-05-16T12:09:18.305Z,10.00
2019-05-16T12:11:47.712Z,10.00
2019-05-16T12:14:17.248Z,9.80
2019-05-16T12:16:47.317Z,9.90
2019-05-16T12:19:18.165Z,9.90
2019-05-16T12:21:49.295Z,10.00
2019-05-16T12:24:31.904Z,9.90
2019-05-16T12:26:51.535Z,10.10
2019-05-16T12:29:24.361Z,10.00
2019-05-16T12:31:58.619Z,10.00
2019-05-16T12:34:24.544Z,10.10
2019-05-16T12:36:56.486Z,9.90
2019-05-16T12:39:26.853Z,9.90
2019-05-16T12:41:59.396Z,9.90
2019-05-16T12:44:27.545Z,9.90
2019-05-16T12:46:57.095Z,10.00
2019-05-16T12:49:26.219Z,10.10
2019-05-16T12:51:57.020Z,10.20
2019-05-16T12:54:27.586Z,10.20
2019-05-16T12:56:58.085Z,10.20
2019-05-16T12:59:27.568Z,10.20
2019-05-16T13:01:57.622Z,10.20
2019-05-16T13:04:28.161Z,10.30
2019-05-16T13:06:58.002Z,10.30
2019-05-16T13:09:27.420Z,10.40
2019-05-16T13:11:57.783Z,10.40
2019-05-16T13:14:28.008Z,10.50
2019-05-16T13:16:57.443Z,10.50
2019-05-16T13:19:33.132Z,10.60
2019-05-16T13:21:57.830Z,10.60
2019-05-16T13:24:27.858Z,10.50
2019-05-16T13:26:57.197Z,10.60
2019-05-16T13:29:27.520Z,10.40
2019-05-16T13:31:57.302Z,10.60
2019-05-16T13:34:28.188Z,10.70
2019-05-16T13:36:58.029Z,10.70
2019-05-16T13:39:27.704Z,10.80
2019-05-16T13:41:56.834Z,10.90
2019-05-16T13:44:27.454Z,10.90
2019-05-16T13:46:56.975Z,11.00
2019-05-16T13:49:26.897Z,10.90
2019-05-16T13:51:56.270Z,10.70
2019-05-16T13:54:26.975Z,10.90
2019-05-16T13:56:57.225Z,11.00
2019-05-16T13:59:28.070Z,10.90
2019-05-16T14:01:57.945Z,10.90
2019-05-16T14:04:27.331Z,11.00
2019-05-16T14:06:58.873Z,11.10
2019-05-16T14:09:27.827Z,11.20
2019-05-16T14:11:57.254Z,11.10
2019-05-16T14:14:37.166Z,11.10
2019-05-16T14:16:57.285Z,11.20
2019-05-16T14:19:27.473Z,11.20
2019-05-16T14:21:57.055Z,11.20
2019-05-16T14:24:28.126Z,11.20
2019-05-16T14:26:57.552Z,11.20
2019-05-16T14:29:27.910Z,11.30
2019-05-16T14:31:57.283Z,11.20
2019-05-16T14:34:27.820Z,11.20
2019-05-16T14:36:57.869Z,11.20
2019-05-16T14:39:28.327Z,11.10
2019-05-16T14:41:57.977Z,11.10
2019-05-16T14:44:28.593Z,11.10
2019-05-16T14:46:58.435Z,11.00
2019-05-16T14:49:28.745Z,11.10
2019-05-16T14:51:58.305Z,11.10
2019-05-16T14:54:27.396Z,11.10
2019-05-16T14:57:00.819Z,11.10
2019-05-16T14:59:30.645Z,11.10
2019-05-16T15:01:58.722Z,11.10
2019-05-16T15:04:30.178Z,11.10
2019-05-16T15:06:59.017Z,11.10
2019-05-16T15:09:28.378Z,11.00
2019-05-16T15:11:58.278Z,11.10
2019-05-16T15:14:28.113Z,11.00
2019-05-16T15:16:57.690Z,11.10
2019-05-16T15:19:27.144Z,11.00
2019-05-16T15:21:57.136Z,11.00
2019-05-16T15:24:26.790Z,10.90
2019-05-16T15:26:57.858Z,10.90
2019-05-16T15:29:27.400Z,10.90
2019-05-16T15:31:57.336Z,11.00
2019-05-16T15:34:29.968Z,11.00
2019-05-16T15:37:00.103Z,10.90
2019-05-16T15:39:28.878Z,11.00
2019-05-16T15:41:58.505Z,11.00
2019-05-16T15:44:27.840Z,11.00
2019-05-16T15:46:59.989Z,11.00
2019-05-16T15:49:28.049Z,11.00
2019-05-16T15:51:57.459Z,11.10
2019-05-16T15:54:28.563Z,11.10
2019-05-16T15:56:57.773Z,11.00
2019-05-16T15:59:27.336Z,11.00
2019-05-16T16:01:56.735Z,10.80
2019-05-16T16:04:27.059Z,10.80
2019-05-16T16:06:56.238Z,10.80
2019-05-16T16:09:26.975Z,10.80
2019-05-16T16:11:56.679Z,10.80
2019-05-16T16:14:27.477Z,10.80
2019-05-16T16:16:57.101Z,10.70
2019-05-16T16:19:26.626Z,10.80
2019-05-16T16:21:57.834Z,10.90
2019-05-16T16:24:27.909Z,10.90
2019-05-16T16:26:57.465Z,10.90
2019-05-16T16:29:27.241Z,10.90
2019-05-16T16:31:56.941Z,10.90
2019-05-16T16:34:26.761Z,10.80
2019-05-16T16:36:56.936Z,10.90
2019-05-16T16:39:26.827Z,10.90
2019-05-16T16:41:56.908Z,11.00
2019-05-16T16:44:27.473Z,11.10
2019-05-16T16:46:57.390Z,11.10
2019-05-16T16:49:27.994Z,11.00
2019-05-16T16:51:57.466Z,11.00
2019-05-16T16:54:27.547Z,10.70
2019-05-16T16:56:56.742Z,10.80
2019-05-16T16:59:28.051Z,10.70
2019-05-16T17:01:57.207Z,10.60
2019-05-16T17:04:26.791Z,10.70
2019-05-16T17:06:56.912Z,10.80
2019-05-16T17:09:27.017Z,10.70
2019-05-16T17:11:57.099Z,10.50
2019-05-16T17:14:26.585Z,10.40
2019-05-16T17:16:57.552Z,10.40
2019-05-16T17:19:26.990Z,10.60
2019-05-16T17:22:13.064Z,10.60
2019-05-16T17:24:27.499Z,10.60
2019-05-16T17:26:57.771Z,10.60
2019-05-16T17:29:27.761Z,10.50
2019-05-16T17:32:06.046Z,10.50
2019-05-16T17:34:28.567Z,10.60
2019-05-16T17:36:57.943Z,10.60
2019-05-16T17:39:27.543Z,10.50
2019-05-16T17:41:59.925Z,10.50
2019-05-16T17:44:29.382Z,10.50
2019-05-16T17:46:58.462Z,10.60
2019-05-16T17:49:28.258Z,10.60
2019-05-16T17:51:57.511Z,10.60
2019-05-16T17:54:27.247Z,10.50
2019-05-16T17:56:56.839Z,10.40
2019-05-16T17:59:27.488Z,10.50
2019-05-16T18:01:57.088Z,10.50
2019-05-16T18:04:26.696Z,10.60
2019-05-16T18:06:57.716Z,10.60
2019-05-16T18:09:27.862Z,10.60
2019-05-16T18:11:57.481Z,10.60
2019-05-16T18:14:26.610Z,10.60
2019-05-16T18:16:59.646Z,10.50
2019-05-16T18:19:26.799Z,10.50
2019-05-16T18:21:57.112Z,10.40
2019-05-16T18:24:27.423Z,10.40
2019-05-16T18:26:57.163Z,10.40
2019-05-16T18:29:26.923Z,10.40
2019-05-16T18:31:56.070Z,10.50
2019-05-16T18:34:27.909Z,10.40
2019-05-16T18:36:57.205Z,10.30
2019-05-16T18:39:27.308Z,10.30
2019-05-16T18:41:56.594Z,10.40
2019-05-16T18:44:27.250Z,10.30
2019-05-16T18:47:06.725Z,10.30
2019-05-16T18:49:27.490Z,10.30
2019-05-16T18:51:57.067Z,10.30
2019-05-16T18:54:26.701Z,10.40
2019-05-16T18:56:57.779Z,10.40
2019-05-16T18:59:26.800Z,10.30
2019-05-16T19:01:56.400Z,10.30
2019-05-16T19:04:27.059Z,10.20
2019-05-16T19:06:59.620Z,10.30
2019-05-16T19:09:28.127Z,10.50
2019-05-16T19:11:59.202Z,10.40
2019-05-16T19:14:28.466Z,10.50
2019-05-16T19:16:57.586Z,10.30
2019-05-16T19:19:28.262Z,10.20
2019-05-16T19:21:59.563Z,10.20
2019-05-16T19:24:28.249Z,10.30
2019-05-16T19:26:57.574Z,10.40
2019-05-16T19:29:26.701Z,10.40
2019-05-16T19:31:57.082Z,10.30
2019-05-16T19:34:27.082Z,10.40
2019-05-16T19:36:57.461Z,10.30
2019-05-16T19:39:28.705Z,10.20
2019-05-16T19:41:57.451Z,10.20
2019-05-16T19:44:27.362Z,10.10
2019-05-16T19:46:57.407Z,10.10
2019-05-16T19:49:27.674Z,10.20
2019-05-16T19:51:57.058Z,10.10
2019-05-16T19:54:27.069Z,10.20
2019-05-16T19:56:56.674Z,10.10
2019-05-16T19:59:27.226Z,10.30
2019-05-16T20:01:56.998Z,10.20
2019-05-16T20:04:27.371Z,10.10
2019-05-16T20:06:56.911Z,10.00
2019-05-16T20:09:27.149Z,9.80
2019-05-16T20:11:57.383Z,9.80
2019-05-16T20:14:27.283Z,9.80
2019-05-16T20:16:59.725Z,9.70
2019-05-16T20:19:28.835Z,9.70
2019-05-16T20:21:58.280Z,9.60
2019-05-16T20:24:27.641Z,9.50
2019-05-16T20:26:57.231Z,9.50
2019-05-16T20:29:27.397Z,9.50
2019-05-16T20:31:59.403Z,9.30
2019-05-16T20:34:28.224Z,9.30
2019-05-16T20:36:57.741Z,9.20
2019-05-16T20:39:26.897Z,9.20
2019-05-16T20:41:59.834Z,9.10
2019-05-16T20:44:30.029Z,9.00
2019-05-16T20:46:59.622Z,9.10
2019-05-16T20:49:28.893Z,9.00
2019-05-16T20:51:58.272Z,9.00
2019-05-16T20:54:27.621Z,8.90
2019-05-16T20:56:57.402Z,9.00
2019-05-16T20:59:26.817Z,8.90
2019-05-16T21:01:57.516Z,8.90
2019-05-16T21:04:26.734Z,8.90
2019-05-16T21:07:02.694Z,8.80
2019-05-16T21:09:26.863Z,8.70
2019-05-16T21:11:56.995Z,8.70
2019-05-16T21:14:27.052Z,8.70
2019-05-16T21:16:57.728Z,8.70
2019-05-16T21:19:26.936Z,8.50
2019-05-16T21:21:56.658Z,8.50
2019-05-16T21:24:26.729Z,8.60
2019-05-16T21:26:56.204Z,8.50
2019-05-16T21:29:27.505Z,8.50
2019-05-16T21:31:56.576Z,8.50
2019-05-16T21:34:27.248Z,8.50
2019-05-16T21:37:00.921Z,8.40
2019-05-16T21:39:27.135Z,8.40
2019-05-16T21:41:56.840Z,8.40
2019-05-16T21:44:29.045Z,8.40
2019-05-16T21:46:58.471Z,8.40
2019-05-16T21:49:27.710Z,8.40
2019-05-16T21:51:57.142Z,8.40
2019-05-16T21:54:28.663Z,8.30
2019-05-16T21:56:57.383Z,8.20
2019-05-16T21:59:28.703Z,8.30
2019-05-16T22:01:57.577Z,8.20
2019-05-16T22:04:26.668Z,8.20
2019-05-16T22:06:56.672Z,8.30
2019-05-16T22:09:26.626Z,8.30
2019-05-16T22:11:57.317Z,8.30
2019-05-16T22:14:29.688Z,8.40
2019-05-16T22:16:58.856Z,8.30
2019-05-16T22:19:28.505Z,8.30
2019-05-16T22:21:58.518Z,8.30
2019-05-16T22:24:27.649Z,8.40
2019-05-16T22:26:57.153Z,8.40
2019-05-16T22:29:26.529Z,8.40
2019-05-16T22:31:55.604Z,8.40
2019-05-16T22:34:26.435Z,8.50
2019-05-16T22:36:57.257Z,8.60
2019-05-16T22:39:27.705Z,8.70
2019-05-16T22:41:57.031Z,8.70
2019-05-16T22:44:27.086Z,8.70
2019-05-16T22:46:56.500Z,8.70
2019-05-16T22:49:27.487Z,8.80
2019-05-16T22:51:57.196Z,8.80
2019-05-16T22:54:26.351Z,8.90
2019-05-16T22:56:57.322Z,8.90
2019-05-16T22:59:27.192Z,9.00
2019-05-16T23:01:57.026Z,9.00
2019-05-16T23:04:27.355Z,9.00
2019-05-16T23:06:56.598Z,9.00
2019-05-16T23:09:27.059Z,8.90
2019-05-16T23:11:56.371Z,8.90
2019-05-16T23:14:26.370Z,8.90
2019-05-16T23:16:57.031Z,8.80
2019-05-16T23:19:26.574Z,8.90
2019-05-16T23:21:56.874Z,9.00
2019-05-16T23:24:26.331Z,9.00
2019-05-16T23:26:56.339Z,9.00
2019-05-16T23:29:27.310Z,9.10
2019-05-16T23:31:56.995Z,9.10
2019-05-16T23:34:26.603Z,9.10
2019-05-16T23:36:57.037Z,9.10
2019-05-16T23:39:26.354Z,9.10
2019-05-16T23:41:56.901Z,9.00
2019-05-16T23:44:26.361Z,8.90
2019-05-16T23:46:56.377Z,8.90
2019-05-16T23:49:27.531Z,9.00
2019-05-16T23:51:56.853Z,8.90
2019-05-16T23:54:27.784Z,8.90
2019-05-16T23:56:57.389Z,8.90
2019-05-16T23:59:27.686Z,8.80
